Meteorología y climatología de Navarra
Datos de la estación - Meteo Navarra

Estación de Tafalla GN

Altitud 430 m.


Datos desde el 11/10/2018 hasta el 12/10/2018 en horario solar
Los datos son PROVISIONALES

Anterior Página 1 de 1 Siguiente Descargar: Formato para Excel 2000 o superior   Formato csv   Formato para OpenOffice Calc
Fecha Temperatura Humedad relativa Radiación global Insolación Precipitación Velocidad viento 10 m Velocidad viento 10 m Dirección viento 10 m
ºC % W/m² s l/m² m/s km/h º
11/10/2018 0:00 14.0 87 0.0 0 0.0 4.6 16.4 159
11/10/2018 0:10 14.2 87 0.0 0 0.0 5.0 17.9 153
11/10/2018 0:20 14.3 87 0.0 0 0.0 4.1 14.8 154
11/10/2018 0:30 14.3 87 0.0 0 0.0 3.5 12.6 152
11/10/2018 0:40 14.7 86 0.0 0 0.0 3.6 13.0 157
11/10/2018 0:50 14.6 87 0.0 0 0.0 3.4 12.1 149
11/10/2018 1:00 14.4 88 0.0 0 0.0 2.7 9.8 147
11/10/2018 1:10 14.6 88 0.0 0 0.0 3.1 11.3 138
11/10/2018 1:20 14.8 87 0.0 0 0.0 2.9 10.5 129
11/10/2018 1:30 14.6 87 0.0 0 0.0 2.5 9.0 132
11/10/2018 1:40 14.5 87 0.0 0 0.0 2.2 7.9 151
11/10/2018 1:50 14.5 88 0.0 0 0.0 2.4 8.7 154
11/10/2018 2:00 14.6 87 0.0 0 0.0 2.1 7.6 151
11/10/2018 2:10 14.6 86 0.0 0 0.0 2.4 8.7 156
11/10/2018 2:20 14.5 87 0.0 0 0.0 2.6 9.4 164
11/10/2018 2:30 14.6 86 0.0 0 0.0 2.3 8.2 158
11/10/2018 2:40 14.8 84 0.0 0 0.0 2.7 9.7 145
11/10/2018 2:50 15.2 83 0.0 0 0.0 3.2 11.7 141
11/10/2018 3:00 15.2 83 0.0 0 0.0 4.0 14.3 144
11/10/2018 3:10 15.5 82 0.0 0 0.0 4.9 17.5 152
11/10/2018 3:20 15.3 82 0.0 0 0.0 5.4 19.4 150
11/10/2018 3:30 15.5 81 0.0 0 0.0 5.3 19.0 145
11/10/2018 3:40 15.5 81 0.0 0 0.0 5.1 18.3 141
11/10/2018 3:50 15.5 81 0.0 0 0.0 5.5 19.8 144
11/10/2018 4:00 15.5 81 0.0 0 0.0 4.6 16.7 138
11/10/2018 4:10 15.3 82 0.0 0 0.0 3.3 11.7 124
11/10/2018 4:20 15.2 82 0.0 0 0.0 3.9 14.1 143
11/10/2018 4:30 15.2 83 0.0 0 0.0 4.1 14.7 139
11/10/2018 4:40 15.1 84 0.0 0 0.0 4.3 15.6 134
11/10/2018 4:50 15.1 85 0.0 0 0.0 4.3 15.6 135
11/10/2018 5:00 15.3 84 0.0 0 0.0 4.7 17.0 139
11/10/2018 5:10 15.2 84 0.0 0 0.0 3.6 12.8 137
11/10/2018 5:20 15.1 85 0.0 0 0.0 3.4 12.1 143
11/10/2018 5:30 15.1 84 0.0 0 0.0 4.0 14.3 137
11/10/2018 5:40 15.1 85 0.0 0 0.0 3.9 14.1 133
11/10/2018 5:50 15.0 85 0.0 0 0.0 4.3 15.3 139
11/10/2018 6:00 15.1 84 0.0 0 0.0 3.8 13.5 137
11/10/2018 6:10 14.9 85 0.0 0 0.0 3.7 13.3 144
11/10/2018 6:20 14.9 86 8.2 0 0.0 3.4 12.2 133
11/10/2018 6:30 14.8 86 22.7 22 0.0 2.9 10.5 137
11/10/2018 6:40 15.0 85 39.2 596 0.0 3.5 12.4 137
11/10/2018 6:50 15.1 85 43.0 344 0.0 3.2 11.6 125
11/10/2018 7:00 15.1 86 43.9 0 0.0 4.0 14.4 136
11/10/2018 7:10 15.5 84 45.4 0 0.0 4.5 16.2 135
11/10/2018 7:20 15.6 84 59.5 0 0.0 3.8 13.5 133
11/10/2018 7:30 16.0 82 65.0 0 0.0 4.7 16.8 138
11/10/2018 7:40 16.2 81 73.8 0 0.0 5.1 18.4 137
11/10/2018 7:50 16.5 80 90.5 0 0.0 6.3 22.8 136
11/10/2018 8:00 16.6 79 133.1 0 0.0 6.1 22.0 134
11/10/2018 8:10 16.9 77 184.7 446 0.0 5.7 20.6 123
11/10/2018 8:20 17.5 76 362.4 600 0.0 5.2 18.6 126
11/10/2018 8:30 18.2 72 369.0 600 0.0 5.9 21.2 130
11/10/2018 8:40 18.5 70 248.2 502 0.0 6.6 23.6 136
11/10/2018 8:50 18.4 69 169.6 0 0.0 7.0 25.1 133
11/10/2018 9:00 18.4 69 211.8 60 0.0 6.6 23.7 130
11/10/2018 9:10 18.8 68 415.5 564 0.0 7.0 25.2 131
11/10/2018 9:20 19.3 67 509.8 592 0.0 6.6 23.8 129
11/10/2018 9:30 19.5 66 456.2 456 0.0 7.0 25.1 133
11/10/2018 9:40 19.7 65 376.5 436 0.0 7.5 27.0 133
11/10/2018 9:50 19.9 64 247.3 136 0.0 7.8 27.9 129
11/10/2018 10:00 20.0 63 458.8 516 0.0 8.2 29.5 133
11/10/2018 10:10 20.6 62 456.8 582 0.0 7.3 26.4 130
11/10/2018 10:20 20.5 61 286.6 150 0.0 8.0 28.9 140
11/10/2018 10:30 20.4 62 266.8 0 0.0 8.0 28.9 137
11/10/2018 10:40 20.2 62 161.9 0 0.0 7.1 25.6 143
11/10/2018 10:50 20.4 61 144.8 0 0.0 7.4 26.7 144
11/10/2018 11:00 20.0 63 82.1 0 0.0 6.5 23.5 142
11/10/2018 11:10 19.7 64 152.4 0 0.0 6.1 21.9 140
11/10/2018 11:20 20.0 64 156.8 0 0.0 6.3 22.8 143
11/10/2018 11:30 20.0 65 201.8 0 0.0 6.6 23.6 138
11/10/2018 11:40 20.2 64 173.8 0 0.0 7.3 26.2 141
11/10/2018 11:50 20.4 64 305.2 122 0.0 7.0 25.2 136
11/10/2018 12:00 20.5 65 314.7 138 0.0 6.5 23.5 131
11/10/2018 12:10 20.5 65 267.2 0 0.0 5.7 20.5 123
11/10/2018 12:20 20.4 65 281.8 0 0.0 6.6 23.9 130
11/10/2018 12:30 20.4 65 240.7 0 0.0 8.2 29.5 133
11/10/2018 12:40 20.4 65 220.6 0 0.0 7.3 26.1 135
11/10/2018 12:50 20.4 64 180.2 0 0.0 6.3 22.6 133
11/10/2018 13:00 20.5 65 189.0 0 0.0 5.4 19.5 134
11/10/2018 13:10 20.7 64 218.3 0 0.0 5.5 19.6 138
11/10/2018 13:20 20.9 63 311.5 272 0.0 5.9 21.1 130
11/10/2018 13:30 21.6 61 619.0 600 0.0 6.3 22.8 138
11/10/2018 13:40 22.0 59 607.6 600 0.0 7.3 26.2 138
11/10/2018 13:50 22.3 59 533.1 558 0.0 6.0 21.4 136
11/10/2018 14:00 22.6 56 586.4 584 0.0 7.5 27.1 139
11/10/2018 14:10 22.7 57 565.3 588 0.0 7.2 25.9 130
11/10/2018 14:20 22.4 57 424.1 506 0.0 8.4 30.1 134
11/10/2018 14:30 22.2 58 200.5 88 0.0 7.2 25.9 133
11/10/2018 14:40 21.9 59 218.1 94 0.0 6.5 23.3 126
11/10/2018 14:50 21.9 59 144.8 0 0.0 6.7 24.2 134
11/10/2018 15:00 21.9 59 71.2 0 0.0 7.1 25.5 138
11/10/2018 15:10 21.8 59 39.1 0 0.0 6.7 24.0 139
11/10/2018 15:20 21.7 60 18.5 0 0.0 5.6 20.2 140
11/10/2018 15:30 20.9 68 27.8 0 0.4 4.2 15.2 132
11/10/2018 15:40 20.4 69 35.0 0 0.0 4.2 15.0 131
11/10/2018 15:50 20.6 67 46.6 0 0.0 4.3 15.5 138
11/10/2018 16:00 20.8 66 85.1 0 0.0 4.3 15.4 137
11/10/2018 16:10 20.9 66 64.3 0 0.0 4.1 14.7 150
11/10/2018 16:20 20.9 67 112.8 300 0.0 4.3 15.3 146
11/10/2018 16:30 20.7 69 115.0 574 0.0 3.5 12.5 116
11/10/2018 16:40 20.7 69 68.9 6 0.0 3.6 12.9 119
11/10/2018 16:50 20.4 71 49.4 0 0.0 3.1 11.0 124
11/10/2018 17:00 20.3 70 40.9 0 0.0 3.2 11.4 127
11/10/2018 17:10 20.5 69 22.5 0 0.0 3.2 11.3 130
11/10/2018 17:20 20.3 69 0.0 0 0.0 3.2 11.7 125
11/10/2018 17:30 20.1 69 0.0 0 0.0 3.4 12.2 123
11/10/2018 17:40 20.2 68 0.0 0 0.0 3.1 11.1 127
11/10/2018 17:50 19.9 69 0.0 0 0.0 2.9 10.4 128
11/10/2018 18:00 19.9 69 0.0 0 0.0 2.6 9.2 127
11/10/2018 18:10 19.9 70 0.0 0 0.1 2.9 10.6 146
11/10/2018 18:20 20.2 68 0.0 0 0.0 3.5 12.6 152
11/10/2018 18:30 20.3 68 0.0 0 0.0 3.8 13.8 154
11/10/2018 18:40 20.0 70 0.0 0 0.0 3.5 12.7 170
11/10/2018 18:50 19.4 73 0.0 0 0.0 3.1 11.0 177
11/10/2018 19:00 20.1 68 0.0 0 0.0 4.9 17.7 146
11/10/2018 19:10 20.3 68 0.0 0 0.0 5.6 20.2 147
11/10/2018 19:20 20.3 67 0.0 0 0.0 6.1 21.9 144
11/10/2018 19:30 20.2 68 0.0 0 0.0 5.1 18.4 140
11/10/2018 19:40 20.0 69 0.0 0 0.0 4.7 16.8 139
11/10/2018 19:50 20.0 69 0.0 0 0.0 5.4 19.4 135
11/10/2018 20:00 20.0 69 0.0 0 0.0 5.1 18.3 140
11/10/2018 20:10 19.9 69 0.0 0 0.0 5.4 19.3 137
11/10/2018 20:20 19.6 70 0.0 0 0.0 4.6 16.4 141
11/10/2018 20:30 19.4 70 0.0 0 0.0 4.5 16.1 145
11/10/2018 20:40 19.5 70 0.0 0 0.0 4.0 14.4 143
11/10/2018 20:50 19.5 69 0.0 0 0.0 4.5 16.2 136
11/10/2018 21:00 19.4 69 0.0 0 0.0 5.4 19.5 136
11/10/2018 21:10 19.4 69 0.0 0 0.0 5.0 18.0 139
11/10/2018 21:20 19.2 70 0.0 0 0.0 4.7 17.0 141
11/10/2018 21:30 19.4 69 0.0 0 0.0 4.6 16.6 137
11/10/2018 21:40 19.1 70 0.0 0 0.0 3.8 13.8 143
11/10/2018 21:50 19.0 70 0.0 0 0.0 4.0 14.4 148
11/10/2018 22:00 19.0 70 0.0 0 0.0 4.1 14.6 147
11/10/2018 22:10 19.1 70 0.0 0 0.0 4.2 14.9 138
11/10/2018 22:20 18.9 70 0.0 0 0.0 3.9 13.9 139
11/10/2018 22:30 18.8 71 0.0 0 0.0 4.0 14.4 139
11/10/2018 22:40 18.9 71 0.0 0 0.0 4.4 15.7 133
11/10/2018 22:50 18.9 71 0.0 0 0.0 4.6 16.7 132
11/10/2018 23:00 19.0 71 0.0 0 0.0 4.6 16.6 137
11/10/2018 23:10 18.8 72 0.0 0 0.0 4.0 14.4 135
11/10/2018 23:20 18.7 72 0.0 0 0.0 3.9 14.1 135
11/10/2018 23:30 18.6 73 0.0 0 0.0 4.0 14.4 139
11/10/2018 23:40 17.8 76 0.0 0 0.0 2.8 10.2 167
11/10/2018 23:50 16.8 81 0.0 0 0.0 2.7 9.6 158
Anterior Página 1 de 1 Siguiente

NOTA: Tipo de datos según el color:
   - Valores diarios o 10 minutos correctos
   - Valores diarios calculados a partir de un número de datos 10 minutos menor que 144 y mayor que 120, o de un número de datos semihorarios menor que 48 y mayor que 40 (caso de las estaciones de Riegos de Navarra y del MARM)
   - Valores diez minutos estimados


Contacto        Enlaces        Aviso legal